Mount Roskill, New Zealand
Current Conditions -  °F | °C
As of 7:00 PM on Friday 19 Dec 2014 (Local Time) from NZAA Reporting Station
Clear Clear  
Wind Chill: 72°   Ceiling: Unl
Heat Index: 72°   Visibility: 6mi
Dew Point: 63°   Wind: 7mph
Humidity: 73%   Direction: 50°NE
Pressure: 30.03"   Gusts: NA
Location:  36.9°S, 174.74°E
Report Text: NZAA 190700Z AUTO 05006KT 350V100 9999 NCD 22/17 Q1017 NOSIG
Loading
Personal Weather Stations






























Interactive Weather Map New forecast layout! Learn more

10-Day Weather Forecast

Advertisements
Track Severe Weather on mobile